createdAt,value
2022-12-17T00:00:49.472Z,12.25
2022-12-17T00:03:35.257Z,22.92
2022-12-17T00:06:20.524Z,41.50
2022-12-17T00:09:05.414Z,30.77
2022-12-17T00:11:50.450Z,34.10
2022-12-17T00:14:35.703Z,32.45
2022-12-17T00:17:20.700Z,32.33
2022-12-17T00:20:05.522Z,31.30
2022-12-17T00:22:50.266Z,11.43
2022-12-17T00:25:35.194Z,33.90
2022-12-17T00:28:20.050Z,37.25
2022-12-17T00:31:10.594Z,37.55
2022-12-17T00:33:55.499Z,34.65
2022-12-17T00:36:41.100Z,38.20
2022-12-17T00:39:26.622Z,35.80
2022-12-17T00:44:56.362Z,37.47
2022-12-17T00:47:41.033Z,37.35
2022-12-17T00:50:26.791Z,39.90
2022-12-17T00:53:12.680Z,37.22
2022-12-17T00:55:58.099Z,36.72
2022-12-17T01:01:28.519Z,34.67
2022-12-17T01:04:13.648Z,36.70
2022-12-17T01:06:58.460Z,35.03
2022-12-17T01:09:43.334Z,36.97
2022-12-17T01:12:28.254Z,37.78
2022-12-17T01:15:13.158Z,38.40
2022-12-17T01:17:58.135Z,36.08
2022-12-17T01:20:42.968Z,34.53
2022-12-17T01:23:28.450Z,32.17
2022-12-17T01:28:59.536Z,29.98
2022-12-17T01:31:44.613Z,23.92
2022-12-17T01:34:29.773Z,31.73
2022-12-17T01:37:15.181Z,32.85
2022-12-17T01:40:00.055Z,36.10
2022-12-17T01:42:45.077Z,33.03
2022-12-17T01:45:32.132Z,33.42
2022-12-17T01:48:23.654Z,29.25
2022-12-17T01:51:11.866Z,32.95
2022-12-17T01:54:02.215Z,33.05
2022-12-17T01:56:47.561Z,34.47
2022-12-17T01:59:33.361Z,34.63
2022-12-17T02:02:18.889Z,29.48
2022-12-17T02:05:04.242Z,32.55
2022-12-17T02:08:14.140Z,33.25
2022-12-17T02:11:21.133Z,31.73
2022-12-17T02:14:40.898Z,34.05
2022-12-17T02:17:30.620Z,30.48
2022-12-17T02:20:21.927Z,32.33
2022-12-17T02:23:16.782Z,26.17
2022-12-17T02:26:04.617Z,22.48
2022-12-17T02:28:50.886Z,31.02
2022-12-17T02:31:36.917Z,29.35
2022-12-17T02:34:21.754Z,32.08
2022-12-17T02:37:06.723Z,29.92
2022-12-17T02:39:51.886Z,28.67
2022-12-17T02:42:44.078Z,32.53
2022-12-17T02:45:30.054Z,25.70
2022-12-17T02:48:15.510Z,27.17
2022-12-17T02:53:45.800Z,23.83
2022-12-17T02:56:30.870Z,26.73
2022-12-17T02:59:16.403Z,28.77
2022-12-17T03:04:46.719Z,25.40
2022-12-17T03:07:32.079Z,20.83
2022-12-17T03:10:16.770Z,12.32
2022-12-17T03:13:01.586Z,24.90
2022-12-17T03:15:46.334Z,26.40
2022-12-17T03:18:32.759Z,28.50
2022-12-17T03:21:17.448Z,25.20
2022-12-17T03:24:02.389Z,24.63
2022-12-17T03:26:47.036Z,24.00
2022-12-17T03:29:31.892Z,11.82
2022-12-17T03:32:16.595Z,23.02
2022-12-17T03:35:01.370Z,23.33
2022-12-17T03:37:46.332Z,18.48
2022-12-17T03:40:31.086Z,21.25
2022-12-17T03:43:16.490Z,22.92
2022-12-17T03:48:46.478Z,21.80
2022-12-17T03:51:31.294Z,23.73
2022-12-17T03:54:16.068Z,22.73
2022-12-17T03:57:00.918Z,23.85
2022-12-17T03:59:45.751Z,23.65
2022-12-17T04:02:30.742Z,19.75
2022-12-17T04:05:20.088Z,4.22
2022-12-17T04:08:06.207Z,25.05
2022-12-17T04:11:07.993Z,25.85
2022-12-17T04:13:52.689Z,25.60
2022-12-17T04:16:37.614Z,19.23
2022-12-17T04:19:22.490Z,23.05
2022-12-17T04:22:07.300Z,24.85
2022-12-17T04:24:52.115Z,24.80
2022-12-17T04:27:37.020Z,23.00
2022-12-17T04:30:22.318Z,25.23
2022-12-17T04:33:07.157Z,17.10
2022-12-17T04:35:52.654Z,21.13
2022-12-17T04:38:37.409Z,22.38
2022-12-17T04:41:22.227Z,18.48
2022-12-17T04:44:07.571Z,18.27
2022-12-17T04:46:52.552Z,17.98
2022-12-17T04:49:37.442Z,20.95
2022-12-17T04:52:22.771Z,21.40
2022-12-17T04:55:07.789Z,20.48
2022-12-17T04:57:52.637Z,22.48
2022-12-17T05:00:37.994Z,22.92
2022-12-17T05:06:13.622Z,17.83
2022-12-17T05:08:58.944Z,22.33
2022-12-17T05:11:43.823Z,23.35
2022-12-17T05:14:28.822Z,20.65
2022-12-17T05:17:14.186Z,17.52
2022-12-17T05:22:43.881Z,22.33
2022-12-17T05:25:29.150Z,22.02
2022-12-17T05:28:14.002Z,22.10
2022-12-17T05:30:59.288Z,23.35
2022-12-17T05:33:44.357Z,20.83
2022-12-17T05:36:29.127Z,22.02
2022-12-17T05:39:14.530Z,21.35
2022-12-17T05:44:44.324Z,20.67
2022-12-17T05:47:29.243Z,24.67
2022-12-17T05:50:13.964Z,18.48
2022-12-17T05:52:58.833Z,18.10
2022-12-17T05:55:43.616Z,21.42
2022-12-17T05:58:29.958Z,24.30
2022-12-17T06:01:16.244Z,10.38
2022-12-17T06:04:04.106Z,19.70
2022-12-17T06:06:49.410Z,17.08
2022-12-17T06:09:34.360Z,22.08
2022-12-17T06:12:19.732Z,19.63
2022-12-17T06:17:49.774Z,14.98
2022-12-17T06:20:35.082Z,5.53
2022-12-17T06:23:29.652Z,19.40
2022-12-17T06:26:15.595Z,24.10
2022-12-17T06:29:01.362Z,23.42
2022-12-17T06:31:47.327Z,23.58
2022-12-17T06:34:32.467Z,21.80
2022-12-17T06:37:17.861Z,19.70
2022-12-17T06:42:47.655Z,17.63
2022-12-17T06:45:32.495Z,17.95
2022-12-17T06:48:21.807Z,19.08
2022-12-17T06:51:07.054Z,23.75
2022-12-17T06:53:51.854Z,23.15
2022-12-17T06:56:36.754Z,18.38
2022-12-17T06:59:21.576Z,21.73
2022-12-17T07:02:06.532Z,16.52
2022-12-17T07:04:51.745Z,24.95
2022-12-17T07:07:36.535Z,12.52
2022-12-17T07:10:22.346Z,24.38
2022-12-17T07:13:07.314Z,20.40
2022-12-17T07:15:52.148Z,21.58
2022-12-17T07:18:36.959Z,23.05
2022-12-17T07:21:22.141Z,21.20
2022-12-17T07:24:07.467Z,20.08
2022-12-17T07:26:52.308Z,22.15
2022-12-17T07:29:37.363Z,22.55
2022-12-17T07:32:22.809Z,21.83
2022-12-17T07:37:52.467Z,20.75
2022-12-17T07:40:47.830Z,17.52
2022-12-17T07:43:33.885Z,25.02
2022-12-17T07:46:19.144Z,22.08
2022-12-17T07:49:04.089Z,20.60
2022-12-17T07:51:48.869Z,11.95
2022-12-17T07:54:33.643Z,21.73
2022-12-17T07:57:18.385Z,22.00
2022-12-17T08:00:03.148Z,23.08
2022-12-17T08:02:48.104Z,23.00
2022-12-17T08:05:33.265Z,19.02
2022-12-17T08:08:26.235Z,18.15
2022-12-17T08:11:11.103Z,22.05
2022-12-17T08:13:56.425Z,22.80
2022-12-17T08:16:41.428Z,21.88
2022-12-17T08:19:26.522Z,22.83
2022-12-17T08:22:11.402Z,22.52
2022-12-17T08:24:56.162Z,18.15
2022-12-17T08:27:41.008Z,18.98
2022-12-17T08:30:26.457Z,17.40
2022-12-17T08:33:11.650Z,21.02
2022-12-17T08:35:57.190Z,18.83
2022-12-17T08:38:42.037Z,20.67
2022-12-17T08:41:26.949Z,22.80
2022-12-17T08:44:11.729Z,13.15
2022-12-17T08:46:56.632Z,24.45
2022-12-17T08:49:41.513Z,10.68
2022-12-17T08:52:26.291Z,23.13
2022-12-17T08:55:11.274Z,9.68
2022-12-17T08:57:56.206Z,15.25
2022-12-17T09:00:41.132Z,13.48
2022-12-17T09:03:26.968Z,10.90
2022-12-17T09:06:11.817Z,12.13
2022-12-17T09:08:56.509Z,8.82
2022-12-17T09:11:41.417Z,5.50
2022-12-17T09:14:26.699Z,32.10
2022-12-17T09:17:11.622Z,8.95
2022-12-17T09:19:56.875Z,11.13
2022-12-17T09:22:41.756Z,5.50
2022-12-17T09:25:27.219Z,9.90
2022-12-17T09:30:56.983Z,19.92
2022-12-17T09:33:41.867Z,21.90
2022-12-17T09:36:27.245Z,9.82
2022-12-17T09:42:09.494Z,7.20
2022-12-17T09:45:09.486Z,6.50
2022-12-17T09:48:06.881Z,20.17
2022-12-17T09:50:52.239Z,24.15
2022-12-17T09:53:42.713Z,22.05
2022-12-17T09:56:30.554Z,26.77
2022-12-17T09:59:16.083Z,24.85
2022-12-17T10:02:01.525Z,15.52
2022-12-17T10:04:55.923Z,22.98
2022-12-17T10:07:49.957Z,17.10
2022-12-17T10:10:45.008Z,21.38
2022-12-17T10:13:39.519Z,8.93
2022-12-17T10:16:58.351Z,19.52
2022-12-17T10:19:58.023Z,21.38
2022-12-17T10:22:43.460Z,25.60
2022-12-17T10:28:32.033Z,10.73
2022-12-17T10:31:18.042Z,14.40
2022-12-17T10:34:04.258Z,11.73
2022-12-17T10:36:50.096Z,9.25
2022-12-17T10:39:44.620Z,20.55
2022-12-17T10:42:59.437Z,23.08
2022-12-17T10:45:45.660Z,22.48
2022-12-17T10:48:37.732Z,22.60
2022-12-17T10:51:24.081Z,6.55
2022-12-17T10:54:10.878Z,14.32
2022-12-17T10:56:56.274Z,24.75
2022-12-17T10:59:56.038Z,26.30
2022-12-17T11:02:47.004Z,26.10
2022-12-17T11:05:34.849Z,24.85
2022-12-17T11:08:21.928Z,11.23
2022-12-17T11:11:07.872Z,22.23
2022-12-17T11:13:58.761Z,23.15
2022-12-17T11:16:48.100Z,23.73
2022-12-17T11:20:08.328Z,22.90
2022-12-17T11:23:02.013Z,21.25
2022-12-17T11:26:03.072Z,18.85
2022-12-17T11:28:51.574Z,13.93
2022-12-17T11:31:36.555Z,18.48
2022-12-17T11:34:43.885Z,18.63
2022-12-17T11:37:31.806Z,17.38
2022-12-17T11:40:30.384Z,17.23
2022-12-17T11:43:41.574Z,15.50
2022-12-17T11:46:37.152Z,5.72
2022-12-17T11:49:37.541Z,17.23
2022-12-17T11:53:08.598Z,11.25
2022-12-17T11:56:17.143Z,14.90
2022-12-17T11:59:28.059Z,18.50
2022-12-17T12:02:42.346Z,5.50
2022-12-17T12:05:53.447Z,17.92
2022-12-17T12:09:26.099Z,9.30
2022-12-17T12:12:22.026Z,8.68
2022-12-17T12:15:09.791Z,3.05
2022-12-17T12:18:01.854Z,12.48
2022-12-17T12:20:55.830Z,16.17
2022-12-17T12:23:59.313Z,18.42
2022-12-17T12:27:06.523Z,5.25
2022-12-17T12:30:24.241Z,7.70
2022-12-17T12:33:28.314Z,18.13
2022-12-17T12:36:19.738Z,21.17
2022-12-17T12:39:08.622Z,19.20
2022-12-17T12:41:53.461Z,18.05
2022-12-17T12:44:54.015Z,19.13
2022-12-17T12:47:51.545Z,18.35
2022-12-17T12:50:48.945Z,18.60
2022-12-17T12:53:34.335Z,17.75
2022-12-17T12:56:19.099Z,17.85
2022-12-17T12:59:04.066Z,16.13
2022-12-17T13:01:55.238Z,16.33
2022-12-17T13:04:53.312Z,17.42
2022-12-17T13:07:30.632Z,14.20
2022-12-17T13:09:58.646Z,17.38
2022-12-17T13:12:44.751Z,12.98
2022-12-17T13:15:23.296Z,17.00
2022-12-17T13:18:02.276Z,15.85
2022-12-17T13:20:34.428Z,15.90
2022-12-17T13:23:28.810Z,16.70
2022-12-17T13:26:30.256Z,11.77
2022-12-17T13:29:11.955Z,14.25
2022-12-17T13:31:50.717Z,14.38
2022-12-17T13:34:26.099Z,17.25
2022-12-17T13:39:40.479Z,16.95
2022-12-17T13:42:18.013Z,12.20
2022-12-17T13:44:46.746Z,18.60
2022-12-17T13:47:22.306Z,9.60
2022-12-17T13:50:32.201Z,18.83
2022-12-17T13:52:46.574Z,16.75
2022-12-17T13:55:25.962Z,11.40
2022-12-17T13:57:54.049Z,18.35
2022-12-17T14:00:27.372Z,19.80
2022-12-17T14:02:54.210Z,19.92
2022-12-17T14:05:37.366Z,17.52
2022-12-17T14:08:05.888Z,16.95
2022-12-17T14:10:32.913Z,19.27
2022-12-17T14:13:18.487Z,8.15
2022-12-17T14:15:49.879Z,19.15
2022-12-17T14:18:20.665Z,16.98
2022-12-17T14:20:49.682Z,14.13
2022-12-17T14:23:26.971Z,16.02
2022-12-17T14:25:54.037Z,5.18
2022-12-17T14:28:24.088Z,4.10
2022-12-17T14:31:25.097Z,18.80
2022-12-17T14:33:38.516Z,18.60
2022-12-17T14:36:23.703Z,5.57
2022-12-17T14:38:55.687Z,15.45
2022-12-17T14:41:44.036Z,21.58
2022-12-17T14:44:30.502Z,21.10
2022-12-17T14:47:20.596Z,19.27
2022-12-17T14:49:55.692Z,18.70
2022-12-17T14:52:41.294Z,22.48
2022-12-17T14:55:35.945Z,6.13
2022-12-17T14:58:11.557Z,18.40
2022-12-17T15:00:44.539Z,20.85
2022-12-17T15:03:23.373Z,21.13
2022-12-17T15:05:57.343Z,18.90
2022-12-17T15:08:23.973Z,24.98
2022-12-17T15:10:50.597Z,25.13
2022-12-17T15:13:17.118Z,25.95
2022-12-17T15:15:43.622Z,51.58
2022-12-17T15:18:12.893Z,31.05
2022-12-17T15:20:39.618Z,47.75
2022-12-17T15:23:06.364Z,25.40
2022-12-17T15:25:32.791Z,31.58
2022-12-17T15:27:59.235Z,60.90
2022-12-17T15:30:25.893Z,12.43
2022-12-17T15:32:52.427Z,7.53
2022-12-17T15:35:18.979Z,67.55
2022-12-17T15:37:45.505Z,26.33
2022-12-17T15:40:12.258Z,28.77
2022-12-17T15:43:02.911Z,41.83
2022-12-17T15:45:31.796Z,45.88
2022-12-17T15:47:58.367Z,41.13
2022-12-17T15:50:25.112Z,29.65
2022-12-17T15:52:51.604Z,29.42
2022-12-17T15:55:18.118Z,29.92
2022-12-17T15:57:44.730Z,59.08
2022-12-17T16:00:11.743Z,69.57
2022-12-17T16:02:38.699Z,42.95
2022-12-17T16:05:06.175Z,111.43
2022-12-17T16:07:33.860Z,60.95
2022-12-17T16:10:05.217Z,32.63
2022-12-17T16:12:32.742Z,33.67
2022-12-17T16:14:59.283Z,40.35
2022-12-17T16:17:25.890Z,37.63
2022-12-17T16:19:52.365Z,42.22
2022-12-17T16:22:18.996Z,37.15
2022-12-17T16:24:45.727Z,56.03
2022-12-17T16:27:13.109Z,52.83
2022-12-17T16:29:39.665Z,34.20
2022-12-17T16:32:06.463Z,37.00
2022-12-17T16:34:32.930Z,33.90
2022-12-17T16:37:01.223Z,36.28
2022-12-17T16:39:28.141Z,36.13
2022-12-17T16:41:54.667Z,40.67
2022-12-17T16:44:21.206Z,44.63
2022-12-17T16:46:47.908Z,44.25
2022-12-17T16:49:19.801Z,40.97
2022-12-17T16:51:52.499Z,41.97
2022-12-17T16:54:21.614Z,44.15
2022-12-17T16:56:48.164Z,50.22
2022-12-17T16:59:16.397Z,44.25
2022-12-17T17:01:46.431Z,36.00
2022-12-17T17:04:15.284Z,33.17
2022-12-17T17:06:47.840Z,31.65
2022-12-17T17:09:15.244Z,35.22
2022-12-17T17:11:43.945Z,36.67
2022-12-17T17:14:13.463Z,35.90
2022-12-17T17:16:40.120Z,32.78
2022-12-17T17:19:07.032Z,36.60
2022-12-17T17:21:36.539Z,39.63
2022-12-17T17:24:07.516Z,47.85
2022-12-17T17:26:34.720Z,38.17
2022-12-17T17:29:02.234Z,44.28
2022-12-17T17:32:01.048Z,44.63
2022-12-17T17:34:15.679Z,60.75
2022-12-17T17:36:42.530Z,60.08
2022-12-17T17:39:09.211Z,37.63
2022-12-17T17:41:36.720Z,47.33
2022-12-17T17:44:08.550Z,55.85
2022-12-17T17:46:35.402Z,61.92
2022-12-17T17:49:03.770Z,58.45
2022-12-17T17:52:07.810Z,45.92
2022-12-17T17:54:21.630Z,97.65
2022-12-17T17:56:48.119Z,44.42
2022-12-17T17:59:19.113Z,43.20
2022-12-17T18:01:49.469Z,65.18
2022-12-17T18:04:20.006Z,47.50
2022-12-17T18:07:16.116Z,38.35
2022-12-17T18:09:34.167Z,47.58
2022-12-17T18:12:21.809Z,42.05
2022-12-17T18:15:12.483Z,59.13
2022-12-17T18:17:35.134Z,45.88
2022-12-17T18:20:01.625Z,34.08
2022-12-17T18:22:28.965Z,39.33
2022-12-17T18:24:55.515Z,41.17
2022-12-17T18:27:22.156Z,38.80
2022-12-17T18:29:48.633Z,33.47
2022-12-17T18:32:15.137Z,32.88
2022-12-17T18:34:42.012Z,32.17
2022-12-17T18:37:08.547Z,40.83
2022-12-17T18:39:35.053Z,36.75
2022-12-17T18:42:20.243Z,39.58
2022-12-17T18:44:46.694Z,37.25
2022-12-17T18:47:13.322Z,44.80
2022-12-17T18:49:39.917Z,44.70
2022-12-17T18:52:09.361Z,45.75
2022-12-17T18:54:39.686Z,37.50
2022-12-17T18:57:06.165Z,44.05
2022-12-17T18:59:32.685Z,39.15
2022-12-17T19:01:59.371Z,40.45
2022-12-17T19:04:26.912Z,42.75
2022-12-17T19:06:54.242Z,38.33
2022-12-17T19:09:35.478Z,47.05
2022-12-17T19:12:03.192Z,47.55
2022-12-17T19:14:29.680Z,47.67
2022-12-17T19:16:57.915Z,41.13
2022-12-17T19:19:25.370Z,44.20
2022-12-17T19:21:54.848Z,41.97
2022-12-17T19:24:22.156Z,57.28
2022-12-17T19:26:49.744Z,44.30
2022-12-17T19:29:17.596Z,38.85
2022-12-17T19:31:44.408Z,37.50
2022-12-17T19:34:13.332Z,37.17
2022-12-17T19:36:40.650Z,45.00
2022-12-17T19:39:08.817Z,65.35
2022-12-17T19:41:35.720Z,49.53
2022-12-17T19:44:05.235Z,74.50
2022-12-17T19:46:33.626Z,46.45
2022-12-17T19:49:00.521Z,49.78
2022-12-17T19:51:29.576Z,41.90
2022-12-17T19:53:56.586Z,44.05
2022-12-17T19:56:22.999Z,41.00
2022-12-17T19:58:52.582Z,41.88
2022-12-17T20:01:24.809Z,41.17
2022-12-17T20:03:52.693Z,44.17
2022-12-17T20:06:22.256Z,40.05
2022-12-17T20:08:49.348Z,41.15
2022-12-17T20:11:32.882Z,41.90
2022-12-17T20:14:11.450Z,53.00
2022-12-17T20:16:40.580Z,42.30
2022-12-17T20:19:10.769Z,40.78
2022-12-17T20:21:37.519Z,43.13
2022-12-17T20:24:04.381Z,44.42
2022-12-17T20:26:31.539Z,47.60
2022-12-17T20:28:59.202Z,51.00
2022-12-17T20:31:27.373Z,40.45
2022-12-17T20:33:53.963Z,42.65
2022-12-17T20:36:21.591Z,48.90
2022-12-17T20:38:48.239Z,41.13
2022-12-17T20:41:21.484Z,42.33
2022-12-17T20:43:49.577Z,43.65
2022-12-17T20:46:17.061Z,58.90
2022-12-17T20:48:44.548Z,53.38
2022-12-17T20:51:23.353Z,62.80
2022-12-17T20:53:50.784Z,45.15
2022-12-17T20:56:21.114Z,44.55
2022-12-17T20:58:48.150Z,42.55
2022-12-17T21:01:21.549Z,45.25
2022-12-17T21:03:49.856Z,39.35
2022-12-17T21:06:17.357Z,44.10
2022-12-17T21:08:50.157Z,44.53
2022-12-17T21:11:22.226Z,44.95
2022-12-17T21:13:48.854Z,55.78
2022-12-17T21:16:27.098Z,44.28
2022-12-17T21:18:58.130Z,61.72
2022-12-17T21:21:28.410Z,57.40
2022-12-17T21:23:55.942Z,52.00
2022-12-17T21:26:25.519Z,50.47
2022-12-17T21:29:00.836Z,53.17
2022-12-17T21:31:31.296Z,52.22
2022-12-17T21:34:00.094Z,73.72
2022-12-17T21:36:28.912Z,66.82
2022-12-17T21:38:55.686Z,64.90
2022-12-17T21:41:25.874Z,99.60
2022-12-17T21:44:01.308Z,63.65
2022-12-17T21:46:29.191Z,75.38
2022-12-17T21:49:00.375Z,122.30
2022-12-17T21:51:28.139Z,72.63
2022-12-17T21:53:56.748Z,68.15
2022-12-17T21:56:24.084Z,95.90
2022-12-17T21:58:56.580Z,53.38
2022-12-17T22:01:25.894Z,59.88
2022-12-17T22:03:54.588Z,52.15
2022-12-17T22:06:26.403Z,129.65
2022-12-17T22:09:07.147Z,52.50
2022-12-17T22:11:40.217Z,75.25
2022-12-17T22:14:12.720Z,55.50
2022-12-17T22:16:47.188Z,56.08
2022-12-17T22:19:15.208Z,56.90
2022-12-17T22:21:44.007Z,58.17
2022-12-17T22:24:15.955Z,54.63
2022-12-17T22:26:42.982Z,54.00
2022-12-17T22:29:09.617Z,94.85
2022-12-17T22:31:54.824Z,59.85
2022-12-17T22:35:12.747Z,70.47
2022-12-17T22:40:31.834Z,53.28
2022-12-17T22:44:15.746Z,55.28
2022-12-17T22:44:41.009Z,55.35
2022-12-17T22:45:46.864Z,58.87
2022-12-17T22:48:14.957Z,49.90
2022-12-17T22:51:03.547Z,50.10
2022-12-17T22:53:29.401Z,48.92
2022-12-17T22:56:13.428Z,48.10
2022-12-17T22:58:46.995Z,60.38
2022-12-17T23:01:16.961Z,52.47
2022-12-17T23:03:47.754Z,55.53
2022-12-17T23:06:17.588Z,48.38
2022-12-17T23:08:44.995Z,45.65
2022-12-17T23:11:14.925Z,52.38
2022-12-17T23:13:41.896Z,64.82
2022-12-17T23:16:11.391Z,52.45
2022-12-17T23:18:37.879Z,46.85
2022-12-17T23:21:12.062Z,53.08
2022-12-17T23:23:39.530Z,53.97
2022-12-17T23:26:13.366Z,54.72
2022-12-17T23:28:40.372Z,49.58
2022-12-17T23:31:26.965Z,50.75
2022-12-17T23:33:53.537Z,44.20
2022-12-17T23:36:22.211Z,43.80
2022-12-17T23:38:50.194Z,42.65
2022-12-17T23:41:20.174Z,46.78
2022-12-17T23:43:48.237Z,42.80
2022-12-17T23:46:16.012Z,46.85
2022-12-17T23:48:45.796Z,42.28
2022-12-17T23:51:14.405Z,45.30
2022-12-17T23:53:41.667Z,43.65
2022-12-17T23:56:15.186Z,44.35
2022-12-17T23:58:43.436Z,41.33
